Etusivu
METAR-TAF:

METAR-TAF

Lentoasemat :

Mendoza, Argentiina

Leveyspiiri: 32-50S, Pituuspiiri: 068-47W, korkeus merenpinnasta: 705 m

Tämänhetkinen sää

Tämä raportti tehtiin 42 minuuttia sitten, kello 20.00 UTC
Tuuli 5 kn lännestä
Lämpötila 29°C
Kosteus 20%
Ilmanpaine 1002 hPa
Näkyvyys 10 km tai enemmän
ei pilviä alle 1500 m:ssä eikä cumulonimbus-pilviä

METAR: SAME 192000Z 27005KT CAVOK 29/04 Q1002

Aika: 17:42 (20:42 UTC)

Sääennuste

Tämä raportti tehtiin 3 tuntia ja 42 minuuttia sitten, kello 17.00 UTC
Ennuste voimassa 19. päivästä klo 18 UTC - 20. päivään klo 18 UTC
Tuuli 10 kn kaakosta
Näkyvyys 10 km tai enemmän
Muutamia pilviä 4000 ft:n korkeudessa
Tulossa
20. päivästä klo 03 UTC - 20. päivään klo 05 UTC
Tuuli 20 kn etelästä
Näkyvyys 10 km tai enemmän
Hajanaisia pilviä 4000 ft:n korkeudessa
Hajanaisia pilviä 10000 ft:n korkeudessa

TAF: SAME 191700Z 1918/2018 14010KT 9999 FEW040 TX28/1920Z TN12/2010Z BECMG 2003/2005 18020KT 9999 SCT040 SCT100

Säähavainnot ja -ennusteet yli 4000 lentoasemalta (METAR- ja TAF-raportit).

Käytössä olevat sääasemat on merkitty karttaan keltaisilla ja punaisilla pisteillä.

Aseta hiiri pisteen päälle nähdäksesi sääaseman nimen.

Klikkaa sitten nähdäksesi säähavainnot ja -ennusteet.

Kartan vaihtaminen: klikkaa mustalla rastilla varustettuja vihreitä pisteitä, niin voit zoomata sisään; viivalla varustettua vihreää pistettä, niin voit zoomata ulos tai vihreitä nuolia, niin pääset viereisille kartoille.


METAR-TAF: